sensor_id;sensor_type;location;lat;lon;timestamp;pressure;altitude;pressure_sealevel;temperature;humidity
12722;BME280;6425;50.316;8.114;2023-10-08T00:00:00;998;;;16.7;77.3
12722;BME280;6425;50.316;8.114;2023-10-08T00:03:00;997;;;16.6;77.5
12722;BME280;6425;50.316;8.114;2023-10-08T00:06:02;997;;;16.5;77.8
12722;BME280;6425;50.316;8.114;2023-10-08T00:09:00;997;;;16.6;77.4
12722;BME280;6425;50.316;8.114;2023-10-08T00:12:00;997;;;16.7;77.3
12722;BME280;6425;50.316;8.114;2023-10-08T00:15:00;998;;;16.8;76.6
12722;BME280;6425;50.316;8.114;2023-10-08T00:18:00;998;;;16.9;75.8
12722;BME280;6425;50.316;8.114;2023-10-08T00:21:00;998;;;17;75.8
12722;BME280;6425;50.316;8.114;2023-10-08T00:24:00;998;;;16.8;75.9
12722;BME280;6425;50.316;8.114;2023-10-08T00:27:00;997;;;16.8;76
12722;BME280;6425;50.316;8.114;2023-10-08T00:30:00;997;;;16.6;77.4
12722;BME280;6425;50.316;8.114;2023-10-08T00:33:00;997;;;16.5;77.9
12722;BME280;6425;50.316;8.114;2023-10-08T00:36:00;997;;;16.6;77.7
12722;BME280;6425;50.316;8.114;2023-10-08T00:39:00;997;;;16.7;77.2
12722;BME280;6425;50.316;8.114;2023-10-08T00:42:00;997;;;16.7;77
12722;BME280;6425;50.316;8.114;2023-10-08T00:45:00;997;;;16.6;77.1
12722;BME280;6425;50.316;8.114;2023-10-08T00:48:00;997;;;16.7;77.1
12722;BME280;6425;50.316;8.114;2023-10-08T00:51:00;997;;;16.8;76.5
12722;BME280;6425;50.316;8.114;2023-10-08T00:54:00;997;;;16.9;76
12722;BME280;6425;50.316;8.114;2023-10-08T00:57:00;997;;;16.9;75.7
12722;BME280;6425;50.316;8.114;2023-10-08T01:00:00;997;;;16.9;75.6
12722;BME280;6425;50.316;8.114;2023-10-08T01:03:00;997;;;16.8;75.7
12722;BME280;6425;50.316;8.114;2023-10-08T01:06:00;997;;;16.8;76.1
12722;BME280;6425;50.316;8.114;2023-10-08T01:09:00;997;;;16.6;76.8
12722;BME280;6425;50.316;8.114;2023-10-08T01:12:07;997;;;16.6;76.9
12722;BME280;6425;50.316;8.114;2023-10-08T01:15:00;997;;;16.5;77.2
12722;BME280;6425;50.316;8.114;2023-10-08T01:18:00;997;;;16.4;77.8
12722;BME280;6425;50.316;8.114;2023-10-08T01:21:00;997;;;16.4;77.6
12722;BME280;6425;50.316;8.114;2023-10-08T01:24:00;997;;;16.5;77.2
12722;BME280;6425;50.316;8.114;2023-10-08T01:27:00;997;;;16.4;77.8
12722;BME280;6425;50.316;8.114;2023-10-08T01:30:00;997;;;16.3;77.9
12722;BME280;6425;50.316;8.114;2023-10-08T01:33:00;997;;;16.2;78.5
12722;BME280;6425;50.316;8.114;2023-10-08T01:36:00;998;;;16.3;78.1
12722;BME280;6425;50.316;8.114;2023-10-08T01:39:00;998;;;16.3;78
12722;BME280;6425;50.316;8.114;2023-10-08T01:42:00;998;;;16.2;78.2
12722;BME280;6425;50.316;8.114;2023-10-08T01:45:00;998;;;16.2;78.6
12722;BME280;6425;50.316;8.114;2023-10-08T01:48:00;998;;;16.2;78.5
12722;BME280;6425;50.316;8.114;2023-10-08T01:51:00;998;;;15.8;80.2
12722;BME280;6425;50.316;8.114;2023-10-08T01:54:00;998;;;15.9;80.3
12722;BME280;6425;50.316;8.114;2023-10-08T01:57:00;997;;;15.9;80.2
12722;BME280;6425;50.316;8.114;2023-10-08T02:00:00;998;;;15.8;80.6
12722;BME280;6425;50.316;8.114;2023-10-08T02:03:00;998;;;15.6;81.6
12722;BME280;6425;50.316;8.114;2023-10-08T02:06:00;997;;;15.7;81.4
12722;BME280;6425;50.316;8.114;2023-10-08T02:09:00;997;;;15.8;81.2
12722;BME280;6425;50.316;8.114;2023-10-08T02:12:00;997;;;15.7;81.5
12722;BME280;6425;50.316;8.114;2023-10-08T02:15:00;997;;;15.8;81.1
12722;BME280;6425;50.316;8.114;2023-10-08T02:18:00;997;;;15.7;81.2
12722;BME280;6425;50.316;8.114;2023-10-08T02:21:00;997;;;15.8;80.6
12722;BME280;6425;50.316;8.114;2023-10-08T02:24:00;997;;;15.8;80.7
12722;BME280;6425;50.316;8.114;2023-10-08T02:27:00;997;;;15.8;80.6
12722;BME280;6425;50.316;8.114;2023-10-08T02:30:00;997;;;15.6;80.7
12722;BME280;6425;50.316;8.114;2023-10-08T02:33:00;997;;;15.6;80.8
12722;BME280;6425;50.316;8.114;2023-10-08T02:36:00;997;;;15.6;80.5
12722;BME280;6425;50.316;8.114;2023-10-08T02:39:00;997;;;15.6;80.8
12722;BME280;6425;50.316;8.114;2023-10-08T02:42:00;997;;;15.7;80.2
12722;BME280;6425;50.316;8.114;2023-10-08T02:45:00;997;;;15.7;80
12722;BME280;6425;50.316;8.114;2023-10-08T02:48:00;997;;;15.8;79.6
12722;BME280;6425;50.316;8.114;2023-10-08T02:51:00;997;;;15.8;79.3
12722;BME280;6425;50.316;8.114;2023-10-08T02:54:00;997;;;15.5;80.4
12722;BME280;6425;50.316;8.114;2023-10-08T02:57:00;997;;;15.2;81.9
12722;BME280;6425;50.316;8.114;2023-10-08T03:00:01;998;;;15.1;82.9
12722;BME280;6425;50.316;8.114;2023-10-08T03:03:00;998;;;15.3;82.2
12722;BME280;6425;50.316;8.114;2023-10-08T03:06:00;998;;;15.4;81.5
12722;BME280;6425;50.316;8.114;2023-10-08T03:09:00;998;;;15.1;82
12722;BME280;6425;50.316;8.114;2023-10-08T03:12:00;998;;;15.1;83
12722;BME280;6425;50.316;8.114;2023-10-08T03:15:00;998;;;15;83.5
12722;BME280;6425;50.316;8.114;2023-10-08T03:18:00;998;;;15;83.8
12722;BME280;6425;50.316;8.114;2023-10-08T03:21:00;998;;;15.1;83.8
12722;BME280;6425;50.316;8.114;2023-10-08T03:24:00;998;;;15.1;83.2
12722;BME280;6425;50.316;8.114;2023-10-08T03:27:00;998;;;15.1;83.6
12722;BME280;6425;50.316;8.114;2023-10-08T03:30:00;998;;;15;83.7
12722;BME280;6425;50.316;8.114;2023-10-08T03:33:00;998;;;14.8;84.6
12722;BME280;6425;50.316;8.114;2023-10-08T03:36:00;998;;;14.7;85.1
12722;BME280;6425;50.316;8.114;2023-10-08T03:39:00;998;;;14.6;85.7
12722;BME280;6425;50.316;8.114;2023-10-08T03:42:00;998;;;14.7;85.8
12722;BME280;6425;50.316;8.114;2023-10-08T03:45:00;998;;;14.9;85
12722;BME280;6425;50.316;8.114;2023-10-08T03:48:00;998;;;15.1;84.2
12722;BME280;6425;50.316;8.114;2023-10-08T03:51:00;998;;;15.2;83.1
12722;BME280;6425;50.316;8.114;2023-10-08T03:54:00;998;;;15.3;82.8
12722;BME280;6425;50.316;8.114;2023-10-08T03:57:00;998;;;15.3;82.8
12722;BME280;6425;50.316;8.114;2023-10-08T04:00:00;998;;;15.4;82.5
12722;BME280;6425;50.316;8.114;2023-10-08T04:03:00;998;;;15.5;81.5
12722;BME280;6425;50.316;8.114;2023-10-08T04:06:00;998;;;15.9;79.9
12722;BME280;6425;50.316;8.114;2023-10-08T04:09:00;998;;;16.1;78.4
12722;BME280;6425;50.316;8.114;2023-10-08T04:12:00;998;;;15.9;78.9
12722;BME280;6425;50.316;8.114;2023-10-08T04:15:00;998;;;15.9;79.7
12722;BME280;6425;50.316;8.114;2023-10-08T04:18:00;998;;;16.2;78.1
12722;BME280;6425;50.316;8.114;2023-10-08T04:21:00;998;;;16;78
12722;BME280;6425;50.316;8.114;2023-10-08T04:24:00;998;;;15.7;80.1
12722;BME280;6425;50.316;8.114;2023-10-08T04:27:00;998;;;15.5;81.1
12722;BME280;6425;50.316;8.114;2023-10-08T04:30:00;998;;;15.3;82.2
12722;BME280;6425;50.316;8.114;2023-10-08T04:33:00;998;;;15.1;83.1
12722;BME280;6425;50.316;8.114;2023-10-08T04:36:00;998;;;15.1;83.6
12722;BME280;6425;50.316;8.114;2023-10-08T04:39:00;998;;;15.2;83.6
12722;BME280;6425;50.316;8.114;2023-10-08T04:42:00;998;;;15.1;83.2
12722;BME280;6425;50.316;8.114;2023-10-08T04:45:00;998;;;15.3;83.1
12722;BME280;6425;50.316;8.114;2023-10-08T04:48:00;998;;;15.1;83.5
12722;BME280;6425;50.316;8.114;2023-10-08T04:51:00;998;;;15;84.4
12722;BME280;6425;50.316;8.114;2023-10-08T04:54:00;998;;;15.1;84.2
12722;BME280;6425;50.316;8.114;2023-10-08T04:57:00;998;;;15.2;83.1
12722;BME280;6425;50.316;8.114;2023-10-08T05:00:00;998;;;15.2;82.9
12722;BME280;6425;50.316;8.114;2023-10-08T05:03:00;998;;;15.3;82.8
12722;BME280;6425;50.316;8.114;2023-10-08T05:06:00;998;;;15.2;82.3
12722;BME280;6425;50.316;8.114;2023-10-08T05:09:00;998;;;15.3;82.5
12722;BME280;6425;50.316;8.114;2023-10-08T05:12:00;998;;;15.4;81.5
12722;BME280;6425;50.316;8.114;2023-10-08T05:15:00;998;;;15.2;82.1
12722;BME280;6425;50.316;8.114;2023-10-08T05:18:00;998;;;15.2;82.7
12722;BME280;6425;50.316;8.114;2023-10-08T05:21:00;998;;;15.1;83.4
12722;BME280;6425;50.316;8.114;2023-10-08T05:24:00;998;;;15.1;83.8
12722;BME280;6425;50.316;8.114;2023-10-08T05:27:00;998;;;15.2;82.9
12722;BME280;6425;50.316;8.114;2023-10-08T05:30:01;998;;;15.1;83.6
12722;BME280;6425;50.316;8.114;2023-10-08T05:33:00;998;;;15.2;83.1
12722;BME280;6425;50.316;8.114;2023-10-08T05:36:00;998;;;15.3;82.3
12722;BME280;6425;50.316;8.114;2023-10-08T05:39:00;998;;;15.3;83
12722;BME280;6425;50.316;8.114;2023-10-08T05:42:00;998;;;15.5;82.1
12722;BME280;6425;50.316;8.114;2023-10-08T05:45:00;998;;;15.8;80.5
12722;BME280;6425;50.316;8.114;2023-10-08T05:48:00;998;;;15.9;79.4
12722;BME280;6425;50.316;8.114;2023-10-08T05:51:05;998;;;15.7;79.9
12722;BME280;6425;50.316;8.114;2023-10-08T05:54:00;998;;;15.5;80.7
12722;BME280;6425;50.316;8.114;2023-10-08T05:57:00;998;;;15.2;82.1
12722;BME280;6425;50.316;8.114;2023-10-08T06:00:00;998;;;15.3;82.9
12722;BME280;6425;50.316;8.114;2023-10-08T06:03:00;998;;;15.2;82.6
12722;BME280;6425;50.316;8.114;2023-10-08T06:06:00;998;;;15.1;83.4
12722;BME280;6425;50.316;8.114;2023-10-08T06:09:00;998;;;15;84
12722;BME280;6425;50.316;8.114;2023-10-08T06:12:00;998;;;15.1;83.7
12722;BME280;6425;50.316;8.114;2023-10-08T06:15:00;998;;;15.2;83.1
12722;BME280;6425;50.316;8.114;2023-10-08T06:18:00;998;;;14.9;84.5
12722;BME280;6425;50.316;8.114;2023-10-08T06:21:00;998;;;14.8;85.9
12722;BME280;6425;50.316;8.114;2023-10-08T06:24:00;998;;;15.1;85.4
12722;BME280;6425;50.316;8.114;2023-10-08T06:27:00;998;;;15.1;84.2
12722;BME280;6425;50.316;8.114;2023-10-08T06:30:00;998;;;15.2;83.6
12722;BME280;6425;50.316;8.114;2023-10-08T06:33:00;998;;;15.3;83.6
12722;BME280;6425;50.316;8.114;2023-10-08T06:36:00;998;;;15.4;82.9
12722;BME280;6425;50.316;8.114;2023-10-08T06:39:00;998;;;15.4;83.4
12722;BME280;6425;50.316;8.114;2023-10-08T06:42:00;999;;;15.1;84.6
12722;BME280;6425;50.316;8.114;2023-10-08T06:45:00;999;;;15.1;85.5
12722;BME280;6425;50.316;8.114;2023-10-08T06:48:00;999;;;15.2;84.9
12722;BME280;6425;50.316;8.114;2023-10-08T06:51:00;999;;;15.2;84.3
12722;BME280;6425;50.316;8.114;2023-10-08T06:54:00;999;;;15.3;84.3
12722;BME280;6425;50.316;8.114;2023-10-08T06:57:00;999;;;15.4;83.4
12722;BME280;6425;50.316;8.114;2023-10-08T07:00:00;999;;;15.5;82.2
12722;BME280;6425;50.316;8.114;2023-10-08T07:03:00;999;;;15.6;82.2
12722;BME280;6425;50.316;8.114;2023-10-08T07:06:00;999;;;16.1;79.9
12722;BME280;6425;50.316;8.114;2023-10-08T07:09:00;999;;;16.1;78.9
12722;BME280;6425;50.316;8.114;2023-10-08T07:12:00;999;;;16.4;78.7
12722;BME280;6425;50.316;8.114;2023-10-08T07:15:00;999;;;16.5;76.8
12722;BME280;6425;50.316;8.114;2023-10-08T07:18:00;999;;;16.7;76.8
12722;BME280;6425;50.316;8.114;2023-10-08T07:21:00;999;;;17.1;75.3
12722;BME280;6425;50.316;8.114;2023-10-08T07:24:00;999;;;17.4;73.3
12722;BME280;6425;50.316;8.114;2023-10-08T07:27:00;999;;;17.5;72.7
12722;BME280;6425;50.316;8.114;2023-10-08T07:30:00;999;;;16.4;76.7
12722;BME280;6425;50.316;8.114;2023-10-08T07:33:00;999;;;16.5;77.8
12722;BME280;6425;50.316;8.114;2023-10-08T07:36:00;999;;;16.5;77.9
12722;BME280;6425;50.316;8.114;2023-10-08T07:39:00;999;;;16.8;77.1
12722;BME280;6425;50.316;8.114;2023-10-08T07:42:00;999;;;16.8;76.4
12722;BME280;6425;50.316;8.114;2023-10-08T07:45:00;999;;;16.7;76.4
12722;BME280;6425;50.316;8.114;2023-10-08T07:48:00;999;;;16.3;79.3
12722;BME280;6425;50.316;8.114;2023-10-08T07:51:00;999;;;16.1;80.9
12722;BME280;6425;50.316;8.114;2023-10-08T07:54:00;999;;;16.2;81.8
12722;BME280;6425;50.316;8.114;2023-10-08T07:57:00;999;;;16.2;81
12722;BME280;6425;50.316;8.114;2023-10-08T08:00:00;999;;;15.9;81.1
12722;BME280;6425;50.316;8.114;2023-10-08T08:03:00;999;;;15.9;82.2
12722;BME280;6425;50.316;8.114;2023-10-08T08:06:00;999;;;16;82.6
12722;BME280;6425;50.316;8.114;2023-10-08T08:09:00;999;;;16;81.8
12722;BME280;6425;50.316;8.114;2023-10-08T08:12:00;999;;;16;81.1
12722;BME280;6425;50.316;8.114;2023-10-08T08:15:00;999;;;15.9;82
12722;BME280;6425;50.316;8.114;2023-10-08T08:18:00;999;;;15.8;82.3
12722;BME280;6425;50.316;8.114;2023-10-08T08:21:00;999;;;15.8;82.3
12722;BME280;6425;50.316;8.114;2023-10-08T08:24:00;999;;;15.8;80.9
12722;BME280;6425;50.316;8.114;2023-10-08T08:27:00;999;;;16.1;81.1
12722;BME280;6425;50.316;8.114;2023-10-08T08:30:00;999;;;16.1;81.3
12722;BME280;6425;50.316;8.114;2023-10-08T08:33:00;999;;;16.1;80.8
12722;BME280;6425;50.316;8.114;2023-10-08T08:36:00;999;;;16.2;80.6
12722;BME280;6425;50.316;8.114;2023-10-08T08:39:00;999;;;16.3;80
12722;BME280;6425;50.316;8.114;2023-10-08T08:42:00;999;;;16.4;78.7
12722;BME280;6425;50.316;8.114;2023-10-08T08:45:00;999;;;16.5;78.5
12722;BME280;6425;50.316;8.114;2023-10-08T08:48:00;999;;;16.5;77.7
12722;BME280;6425;50.316;8.114;2023-10-08T08:51:00;999;;;16.9;78.1
12722;BME280;6425;50.316;8.114;2023-10-08T08:54:00;999;;;16.9;75.6
12722;BME280;6425;50.316;8.114;2023-10-08T08:57:00;999;;;16.9;76.8
12722;BME280;6425;50.316;8.114;2023-10-08T09:00:00;999;;;16.8;76.4
12722;BME280;6425;50.316;8.114;2023-10-08T09:03:00;999;;;16.8;75.8
12722;BME280;6425;50.316;8.114;2023-10-08T09:06:00;999;;;17.1;75
12722;BME280;6425;50.316;8.114;2023-10-08T09:09:00;1000;;;17.1;73.6
12722;BME280;6425;50.316;8.114;2023-10-08T09:12:00;999;;;17;75.3
12722;BME280;6425;50.316;8.114;2023-10-08T09:15:00;1000;;;17.2;75.2
12722;BME280;6425;50.316;8.114;2023-10-08T09:18:00;1000;;;17;73.8
12722;BME280;6425;50.316;8.114;2023-10-08T09:21:08;1000;;;17.3;73.3
12722;BME280;6425;50.316;8.114;2023-10-08T09:24:00;1000;;;17.4;72.6
12722;BME280;6425;50.316;8.114;2023-10-08T09:27:00;1000;;;17.5;72.9
12722;BME280;6425;50.316;8.114;2023-10-08T09:30:03;1000;;;17.4;72.6
12722;BME280;6425;50.316;8.114;2023-10-08T09:33:00;999;;;17.4;73.4
12722;BME280;6425;50.316;8.114;2023-10-08T09:36:00;999;;;16.9;74.7
12722;BME280;6425;50.316;8.114;2023-10-08T09:39:00;999;;;17.2;74.2
12722;BME280;6425;50.316;8.114;2023-10-08T09:42:01;1000;;;17.5;72.7
12722;BME280;6425;50.316;8.114;2023-10-08T09:45:00;999;;;18;70.7
12722;BME280;6425;50.316;8.114;2023-10-08T09:48:00;999;;;18.1;69.7
12722;BME280;6425;50.316;8.114;2023-10-08T09:51:00;1000;;;18.1;71
12722;BME280;6425;50.316;8.114;2023-10-08T09:54:01;1000;;;18.1;70.5
12722;BME280;6425;50.316;8.114;2023-10-08T09:57:01;1000;;;18.2;70
12722;BME280;6425;50.316;8.114;2023-10-08T10:00:00;1000;;;18.2;70.3
12722;BME280;6425;50.316;8.114;2023-10-08T10:03:00;1000;;;18.3;69.2
12722;BME280;6425;50.316;8.114;2023-10-08T10:06:00;999;;;18.4;68.4
12722;BME280;6425;50.316;8.114;2023-10-08T10:09:00;999;;;18.9;67.6
12722;BME280;6425;50.316;8.114;2023-10-08T10:12:00;999;;;18.1;70
12722;BME280;6425;50.316;8.114;2023-10-08T10:15:00;1000;;;18.1;69.9
12722;BME280;6425;50.316;8.114;2023-10-08T10:18:08;1000;;;18.5;69.3
12722;BME280;6425;50.316;8.114;2023-10-08T10:21:00;1000;;;18.3;70.5
12722;BME280;6425;50.316;8.114;2023-10-08T10:24:00;1000;;;18.3;69.7
12722;BME280;6425;50.316;8.114;2023-10-08T10:27:10;1000;;;18.3;71.5
12722;BME280;6425;50.316;8.114;2023-10-08T10:30:01;1000;;;18.2;70.2
12722;BME280;6425;50.316;8.114;2023-10-08T10:33:00;1000;;;18.4;71
12722;BME280;6425;50.316;8.114;2023-10-08T10:36:00;1000;;;18.1;72
12722;BME280;6425;50.316;8.114;2023-10-08T10:39:00;1000;;;18.8;69.2
12722;BME280;6425;50.316;8.114;2023-10-08T10:42:00;1000;;;18.8;68.8
12722;BME280;6425;50.316;8.114;2023-10-08T10:45:00;1000;;;18.9;68.9
12722;BME280;6425;50.316;8.114;2023-10-08T10:48:00;1000;;;19.2;67.9
12722;BME280;6425;50.316;8.114;2023-10-08T10:51:00;1000;;;19.3;67.2
12722;BME280;6425;50.316;8.114;2023-10-08T10:54:00;1000;;;19.7;65.8
12722;BME280;6425;50.316;8.114;2023-10-08T10:57:00;1000;;;19.7;66.5
12722;BME280;6425;50.316;8.114;2023-10-08T11:00:02;1000;;;19.6;66.4
12722;BME280;6425;50.316;8.114;2023-10-08T11:03:00;1000;;;19.3;69.2
12722;BME280;6425;50.316;8.114;2023-10-08T11:06:00;1000;;;19.4;67.7
12722;BME280;6425;50.316;8.114;2023-10-08T11:09:00;1000;;;20.3;64.7
12722;BME280;6425;50.316;8.114;2023-10-08T11:12:00;1000;;;20.4;64
12722;BME280;6425;50.316;8.114;2023-10-08T11:15:00;1000;;;20.7;63.2
12722;BME280;6425;50.316;8.114;2023-10-08T11:18:00;1000;;;20.7;62.9
12722;BME280;6425;50.316;8.114;2023-10-08T11:21:08;1000;;;21;62.1
12722;BME280;6425;50.316;8.114;2023-10-08T11:24:00;1000;;;21.1;61.9
12722;BME280;6425;50.316;8.114;2023-10-08T11:27:00;1000;;;21;61.7
12722;BME280;6425;50.316;8.114;2023-10-08T11:30:00;1000;;;20.9;61.7
12722;BME280;6425;50.316;8.114;2023-10-08T11:33:00;1000;;;20.7;62.9
12722;BME280;6425;50.316;8.114;2023-10-08T11:36:00;1000;;;20.6;63.8
12722;BME280;6425;50.316;8.114;2023-10-08T11:39:08;1000;;;21.1;62
12722;BME280;6425;50.316;8.114;2023-10-08T11:42:00;1000;;;21.5;60.7
12722;BME280;6425;50.316;8.114;2023-10-08T11:45:00;1000;;;21.1;61.5
12722;BME280;6425;50.316;8.114;2023-10-08T11:48:00;1000;;;20.5;63.9
12722;BME280;6425;50.316;8.114;2023-10-08T11:51:00;1000;;;20.7;62.9
12722;BME280;6425;50.316;8.114;2023-10-08T11:54:00;1000;;;20.1;65.9
12722;BME280;6425;50.316;8.114;2023-10-08T11:57:00;1000;;;20.6;65.7
12722;BME280;6425;50.316;8.114;2023-10-08T12:00:00;1000;;;21.2;62.7
12722;BME280;6425;50.316;8.114;2023-10-08T12:03:00;1000;;;20.9;63.2
12722;BME280;6425;50.316;8.114;2023-10-08T12:06:00;1000;;;20.5;64.2
12722;BME280;6425;50.316;8.114;2023-10-08T12:09:00;1000;;;20.3;64.2
12722;BME280;6425;50.316;8.114;2023-10-08T12:12:00;1000;;;20.7;63.7
12722;BME280;6425;50.316;8.114;2023-10-08T12:15:00;1000;;;20.3;64.8
12722;BME280;6425;50.316;8.114;2023-10-08T12:18:00;999;;;20.3;65
12722;BME280;6425;50.316;8.114;2023-10-08T12:21:00;1000;;;20.9;63.9
12722;BME280;6425;50.316;8.114;2023-10-08T12:24:00;999;;;21.8;61.4
12722;BME280;6425;50.316;8.114;2023-10-08T12:27:00;999;;;21.1;62.9
12722;BME280;6425;50.316;8.114;2023-10-08T12:30:00;999;;;20.8;64.4
12722;BME280;6425;50.316;8.114;2023-10-08T12:33:00;999;;;21.4;62.6
12722;BME280;6425;50.316;8.114;2023-10-08T12:36:00;999;;;21.4;61.5
12722;BME280;6425;50.316;8.114;2023-10-08T12:39:00;999;;;21.3;61.5
12722;BME280;6425;50.316;8.114;2023-10-08T12:42:00;999;;;22;59.5
12722;BME280;6425;50.316;8.114;2023-10-08T12:45:00;999;;;22.1;59.4
12722;BME280;6425;50.316;8.114;2023-10-08T12:48:00;999;;;22;59.4
12722;BME280;6425;50.316;8.114;2023-10-08T12:51:00;999;;;21.3;61.4
12722;BME280;6425;50.316;8.114;2023-10-08T12:54:00;1000;;;21.3;61.7
12722;BME280;6425;50.316;8.114;2023-10-08T12:57:00;999;;;20.9;63
12722;BME280;6425;50.316;8.114;2023-10-08T13:00:00;999;;;20.6;64.8
12722;BME280;6425;50.316;8.114;2023-10-08T13:03:00;999;;;20.4;65.7
12722;BME280;6425;50.316;8.114;2023-10-08T13:06:00;999;;;20.1;67.1
12722;BME280;6425;50.316;8.114;2023-10-08T13:09:00;999;;;20.6;65.1
12722;BME280;6425;50.316;8.114;2023-10-08T13:12:00;999;;;20.5;65.5
12722;BME280;6425;50.316;8.114;2023-10-08T13:15:00;999;;;20.5;66.6
12722;BME280;6425;50.316;8.114;2023-10-08T13:18:00;999;;;21;64.9
12722;BME280;6425;50.316;8.114;2023-10-08T13:21:00;999;;;21.8;61.8
12722;BME280;6425;50.316;8.114;2023-10-08T13:24:00;999;;;21.9;61.1
12722;BME280;6425;50.316;8.114;2023-10-08T13:27:00;999;;;21.1;63.9
12722;BME280;6425;50.316;8.114;2023-10-08T13:30:00;999;;;20.4;66.6
12722;BME280;6425;50.316;8.114;2023-10-08T13:33:00;999;;;20.8;65.6
12722;BME280;6425;50.316;8.114;2023-10-08T13:36:00;999;;;21.3;63.4
12722;BME280;6425;50.316;8.114;2023-10-08T13:39:00;999;;;21.8;62.2
12722;BME280;6425;50.316;8.114;2023-10-08T13:42:00;999;;;22.3;59.6
12722;BME280;6425;50.316;8.114;2023-10-08T13:45:00;999;;;22;59.7
12722;BME280;6425;50.316;8.114;2023-10-08T13:48:00;999;;;21.9;60.3
12722;BME280;6425;50.316;8.114;2023-10-08T13:51:00;999;;;22.2;59.7
12722;BME280;6425;50.316;8.114;2023-10-08T13:54:00;999;;;22.6;58.4
12722;BME280;6425;50.316;8.114;2023-10-08T13:57:00;999;;;22.1;61.1
12722;BME280;6425;50.316;8.114;2023-10-08T14:00:00;999;;;21.5;62.8
12722;BME280;6425;50.316;8.114;2023-10-08T14:03:00;999;;;21.1;63.5
12722;BME280;6425;50.316;8.114;2023-10-08T14:06:00;999;;;21;63.2
12722;BME280;6425;50.316;8.114;2023-10-08T14:09:00;999;;;21.6;61.6
12722;BME280;6425;50.316;8.114;2023-10-08T14:12:00;999;;;22.2;59.8
12722;BME280;6425;50.316;8.114;2023-10-08T14:15:00;999;;;22.1;59.8
12722;BME280;6425;50.316;8.114;2023-10-08T14:18:00;999;;;22.5;58.9
12722;BME280;6425;50.316;8.114;2023-10-08T14:21:00;999;;;22.6;58.6
12722;BME280;6425;50.316;8.114;2023-10-08T14:24:00;999;;;22.8;57.9
12722;BME280;6425;50.316;8.114;2023-10-08T14:27:00;999;;;23;58
12722;BME280;6425;50.316;8.114;2023-10-08T14:30:00;999;;;23.1;57.7
12722;BME280;6425;50.316;8.114;2023-10-08T14:33:00;999;;;23.1;56.8
12722;BME280;6425;50.316;8.114;2023-10-08T14:36:00;999;;;23.4;56.7
12722;BME280;6425;50.316;8.114;2023-10-08T14:39:00;999;;;23.4;56.3
12722;BME280;6425;50.316;8.114;2023-10-08T14:42:00;999;;;23.3;56.7
12722;BME280;6425;50.316;8.114;2023-10-08T14:45:00;999;;;23.6;56.4
12722;BME280;6425;50.316;8.114;2023-10-08T14:48:00;999;;;23;57.3
12722;BME280;6425;50.316;8.114;2023-10-08T14:51:00;999;;;21.7;61
12722;BME280;6425;50.316;8.114;2023-10-08T14:54:00;998;;;22.1;60.4
12722;BME280;6425;50.316;8.114;2023-10-08T14:57:00;998;;;22.6;58.9
12722;BME280;6425;50.316;8.114;2023-10-08T15:00:00;998;;;22.4;59.9
12722;BME280;6425;50.316;8.114;2023-10-08T15:03:00;998;;;22.8;60.1
12722;BME280;6425;50.316;8.114;2023-10-08T15:06:00;998;;;23;60.1
12722;BME280;6425;50.316;8.114;2023-10-08T15:09:00;998;;;22.2;60.4
12722;BME280;6425;50.316;8.114;2023-10-08T15:12:00;998;;;21.7;62.6
12722;BME280;6425;50.316;8.114;2023-10-08T15:15:00;998;;;21.6;63.2
12722;BME280;6425;50.316;8.114;2023-10-08T15:18:00;998;;;22.2;63
12722;BME280;6425;50.316;8.114;2023-10-08T15:21:00;998;;;22;62.9
12722;BME280;6425;50.316;8.114;2023-10-08T15:24:00;998;;;21.6;64
12722;BME280;6425;50.316;8.114;2023-10-08T15:27:00;998;;;21.9;64.4
12722;BME280;6425;50.316;8.114;2023-10-08T15:30:00;998;;;22.1;62.7
12722;BME280;6425;50.316;8.114;2023-10-08T15:33:00;998;;;21.8;63.5
12722;BME280;6425;50.316;8.114;2023-10-08T15:36:00;998;;;21.6;63.4
12722;BME280;6425;50.316;8.114;2023-10-08T15:39:00;998;;;21.8;63.9
12722;BME280;6425;50.316;8.114;2023-10-08T15:42:00;998;;;22.1;63
12722;BME280;6425;50.316;8.114;2023-10-08T15:45:00;998;;;22.3;62
12722;BME280;6425;50.316;8.114;2023-10-08T15:48:00;998;;;22.3;62.1
12722;BME280;6425;50.316;8.114;2023-10-08T15:51:00;998;;;22.1;62.4
12722;BME280;6425;50.316;8.114;2023-10-08T15:54:00;998;;;21.9;63
12722;BME280;6425;50.316;8.114;2023-10-08T15:57:00;998;;;21.9;63.8
12722;BME280;6425;50.316;8.114;2023-10-08T16:00:00;998;;;21.6;65.3
12722;BME280;6425;50.316;8.114;2023-10-08T16:03:00;998;;;21.5;65.9
12722;BME280;6425;50.316;8.114;2023-10-08T16:06:00;999;;;20.6;68.2
12722;BME280;6425;50.316;8.114;2023-10-08T16:09:00;999;;;19.8;71.2
12722;BME280;6425;50.316;8.114;2023-10-08T16:12:00;998;;;18.9;74.8
12722;BME280;6425;50.316;8.114;2023-10-08T16:15:00;999;;;18.5;77
12722;BME280;6425;50.316;8.114;2023-10-08T16:18:00;998;;;18.4;78
12722;BME280;6425;50.316;8.114;2023-10-08T16:21:00;999;;;18.2;78.9
12722;BME280;6425;50.316;8.114;2023-10-08T16:24:00;999;;;17.9;80.1
12722;BME280;6425;50.316;8.114;2023-10-08T16:27:00;998;;;17.7;80.9
12722;BME280;6425;50.316;8.114;2023-10-08T16:30:00;998;;;17.6;81.6
12722;BME280;6425;50.316;8.114;2023-10-08T16:33:00;998;;;17.7;80.7
12722;BME280;6425;50.316;8.114;2023-10-08T16:36:00;998;;;17.8;80.7
12722;BME280;6425;50.316;8.114;2023-10-08T16:39:00;998;;;18;79.6
12722;BME280;6425;50.316;8.114;2023-10-08T16:42:00;998;;;18.1;79.1
12722;BME280;6425;50.316;8.114;2023-10-08T16:45:00;998;;;18.2;77.8
12722;BME280;6425;50.316;8.114;2023-10-08T16:48:00;998;;;18.4;77.1
12722;BME280;6425;50.316;8.114;2023-10-08T16:51:00;998;;;18.6;76
12722;BME280;6425;50.316;8.114;2023-10-08T16:54:00;998;;;18.7;75.6
12722;BME280;6425;50.316;8.114;2023-10-08T16:57:00;998;;;18.7;75.6
12722;BME280;6425;50.316;8.114;2023-10-08T17:00:00;998;;;18.6;75.7
12722;BME280;6425;50.316;8.114;2023-10-08T17:03:00;998;;;18.5;75.7
12722;BME280;6425;50.316;8.114;2023-10-08T17:06:00;998;;;18.5;75.9
12722;BME280;6425;50.316;8.114;2023-10-08T17:09:00;998;;;18.4;76
12722;BME280;6425;50.316;8.114;2023-10-08T17:12:00;998;;;18.1;77.1
12722;BME280;6425;50.316;8.114;2023-10-08T17:15:00;998;;;17.9;78
12722;BME280;6425;50.316;8.114;2023-10-08T17:18:00;998;;;17.7;78.7
12722;BME280;6425;50.316;8.114;2023-10-08T17:21:00;998;;;17.7;78.9
12722;BME280;6425;50.316;8.114;2023-10-08T17:24:00;998;;;17.6;78.5
12722;BME280;6425;50.316;8.114;2023-10-08T17:27:00;998;;;17.5;78.6
12722;BME280;6425;50.316;8.114;2023-10-08T17:30:00;998;;;17.4;79.1
12722;BME280;6425;50.316;8.114;2023-10-08T17:33:00;998;;;16.9;80.4
12722;BME280;6425;50.316;8.114;2023-10-08T17:36:00;998;;;16.5;83.2
12722;BME280;6425;50.316;8.114;2023-10-08T17:39:00;998;;;16.6;84.6
12722;BME280;6425;50.316;8.114;2023-10-08T17:42:00;998;;;16.6;84.8
12722;BME280;6425;50.316;8.114;2023-10-08T17:45:00;998;;;16.5;84
12722;BME280;6425;50.316;8.114;2023-10-08T17:48:00;998;;;16.6;82.8